Map

Track Data

SID SEASON NUMBER BASIN SUBBASIN NAME ISO_TIME NATURE LAT LON WMO_WIND WMO_PRES WMO_AGENCY TRACK_TYPE DIST2LAND LANDFALL IFLAG USA_AGENCY USA_ATCF_ID USA_LAT USA_LON USA_RECORD USA_STATUS USA_WIND USA_PRES USA_SSHS USA_R34_NE USA_R34_SE USA_R34_SW USA_R34_NW USA_R50_NE USA_R50_SE USA_R50_SW USA_R50_NW USA_R64_NE USA_R64_SE USA_R64_SW USA_R64_NW USA_POCI USA_ROCI USA_RMW USA_EYE TOKYO_LAT TOKYO_LON TOKYO_GRADE TOKYO_WIND TOKYO_PRES TOKYO_R50_DIR TOKYO_R50_LONG TOKYO_R50_SHORT TOKYO_R30_DIR TOKYO_R30_LONG TOKYO_R30_SHORT TOKYO_LAND CMA_LAT CMA_LON CMA_CAT CMA_WIND CMA_PRES HKO_LAT HKO_LON HKO_CAT HKO_WIND HKO_PRES NEWDELHI_LAT NEWDELHI_LON NEWDELHI_GRADE NEWDELHI_WIND NEWDELHI_PRES NEWDELHI_CI NEWDELHI_DP NEWDELHI_POCI REUNION_LAT REUNION_LON REUNION_TYPE REUNION_WIND REUNION_PRES REUNION_TNUM REUNION_CI REUNION_RMW REUNION_R34_NE REUNION_R34_SE REUNION_R34_SW REUNION_R34_NW REUNION_R50_NE REUNION_R50_SE REUNION_R50_SW REUNION_R50_NW REUNION_R64_NE REUNION_R64_SE REUNION_R64_SW REUNION_R64_NW BOM_LAT BOM_LON BOM_TYPE BOM_WIND BOM_PRES BOM_TNUM BOM_CI BOM_RMW BOM_R34_NE BOM_R34_SE BOM_R34_SW BOM_R34_NW BOM_R50_NE BOM_R50_SE BOM_R50_SW BOM_R50_NW BOM_R64_NE BOM_R64_SE BOM_R64_SW BOM_R64_NW BOM_ROCI BOM_POCI BOM_EYE BOM_POS_METHOD BOM_PRES_METHOD NADI_LAT NADI_LON NADI_CAT NADI_WIND NADI_PRES WELLINGTON_LAT WELLINGTON_LON WELLINGTON_WIND WELLINGTON_PRES DS824_LAT DS824_LON DS824_STAGE DS824_WIND DS824_PRES TD9636_LAT TD9636_LON TD9636_STAGE TD9636_WIND TD9636_PRES TD9635_LAT TD9635_LON TD9635_WIND TD9635_PRES TD9635_ROCI NEUMANN_LAT NEUMANN_LON NEUMANN_CLASS NEUMANN_WIND NEUMANN_PRES MLC_LAT MLC_LON MLC_CLASS MLC_WIND MLC_PRES USA_GUST BOM_GUST BOM_GUST_PER REUNION_GUST REUNION_GUST_PER USA_SEAHGT USA_SEARAD_NE USA_SEARAD_SE USA_SEARAD_SW USA_SEARAD_NW STORM_SPEED STORM_DIR
1935084S14123 1935 20 SI WA NOT_NAMED 1935-03-24 23:00:00 NR -13.7000 123.400 main 218 218 __________O___ -1 -13.7000 123.400 7 2 0
1935084S14123 1935 20 SI WA NOT_NAMED 1935-03-25 00:00:00 NR -13.7239 123.381 main 218 213 __________P___ -1 -13.7239 123.381 7 2 219
1935084S14123 1935 20 SI WA NOT_NAMED 1935-03-25 03:00:00 NR -13.7924 123.324 main 223 223 __________P___ -1 -13.7924 123.324 7 2 219
1935084S14123 1935 20 SI WA NOT_NAMED 1935-03-25 06:00:00 NR -13.8501 123.271 main 217 217 __________P___ -1 -13.8501 123.271 7 1 225
1935084S14123 1935 20 SI WA NOT_NAMED 1935-03-25 09:00:00 NR -13.8888 123.225 main 225 225 __________P___ -1 -13.8888 123.225 7 1 236
1935084S14123 1935 20 SI WA NOT_NAMED 1935-03-25 11:00:00 NR -13.9000 123.200 main 225 225 __________O___ -1 -13.9000 123.200 7 1 253
1935084S14123 1935 20 SI WA NOT_NAMED 1935-03-25 12:00:00 NR -13.9006 123.189 main 225 225 __________P___ -1 -13.9006 123.189 7 1 281
1935084S14123 1935 20 SI WA NOT_NAMED 1935-03-25 15:00:00 NR -13.8923 123.160 main 225 225 __________P___ -1 -13.8923 123.160 7 1 276
1935084S14123 1935 20 SI WA NOT_NAMED 1935-03-25 18:00:00 NR -13.8932 123.123 main 233 233 __________P___ -1 -13.8932 123.123 7 1 246
1935084S14123 1935 20 SI WA NOT_NAMED 1935-03-25 21:00:00 NR -13.9345 123.062 main 233 233 __________P___ -1 -13.9345 123.062 7 2 228
1935084S14123 1935 20 SI WA NOT_NAMED 1935-03-25 23:00:00 NR -14.0000 123.000 main 233 233 __________O___ -1 -14.0000 123.000 7 3 222
1935084S14123 1935 20 SI WA NOT_NAMED 1935-03-26 00:00:00 NR -14.0520 122.955 main 225 218 __________P___ -1 -14.0520 122.955 7 5 128
1935084S14123 1935 20 SI WA NOT_NAMED 1935-03-26 01:00:00 NR -14.0902 123.123 bom main 218 202 ______O___P___ -1 -14.0000 124.000 -14.1127 122.904 7 5 124
1935084S14123 1935 20 SI WA NOT_NAMED 1935-03-26 03:00:00 NR -14.1895 123.168 main 202 194 ______P___P___ -1 -14.0548 123.925 -14.2569 122.790 7 3 183
1935084S14123 1935 20 SI WA NOT_NAMED 1935-03-26 06:00:00 NR -14.3553 123.119 main 193 186 ______P___P___ -1 -14.1410 123.810 -14.5160 122.601 7 4 198
1935084S14123 1935 20 SI WA NOT_NAMED 1935-03-26 09:00:00 NR -14.5210 123.051 main 186 186 ______P___P___ -1 -14.2379 123.690 -14.8041 122.413 7 4 209
1935084S14123 1935 20 SI WA NOT_NAMED 1935-03-26 11:00:00 NR -14.6558 122.952 main 180 180 ______P___O___ -1 -14.3117 123.604 -15.0000 122.300 7 5 217
1935084S14123 1935 20 SI WA NOT_NAMED 1935-03-26 12:00:00 NR -14.7214 122.901 main 188 174 ______P___P___ -1 -14.3520 123.560 -15.0908 122.242 7 5 216
1935084S14123 1935 20 SI WA NOT_NAMED 1935-03-26 15:00:00 NR -14.9295 122.747 main 180 158 ______P___P___ -1 -14.4895 123.417 -15.3695 122.078 7 5 214
1935084S14123 1935 20 SI WA NOT_NAMED 1935-03-26 18:00:00 NR -15.1539 122.604 main 149 130 ______P___P___ -1 -14.6570 123.257 -15.6509 121.952 7 5 209
1935084S14123 1935 20 SI WA NOT_NAMED 1935-03-26 21:00:00 NR -15.3931 122.484 main 130 119 ______P___P___ -1 -14.8607 123.077 -15.9254 121.891 7 5 203
1935084S14123 1935 20 SI WA NOT_NAMED 1935-03-26 23:00:00 NR -15.5600 122.422 main 114 114 ______P___O___ -1 -15.0199 122.945 -16.1000 121.900 7 5 198
1935084S14123 1935 20 SI WA NOT_NAMED 1935-03-27 00:00:00 NR -15.6482 122.399 main 114 104 ______P___P___ -1 -15.1072 122.874 -16.1891 121.925 7 6 190
1935084S14123 1935 20 SI WA NOT_NAMED 1935-03-27 01:00:00 NR -15.7386 122.381 bom main 104 85 ______O___P___ -1 -15.2000 122.800 -16.2772 121.962 7 6 188
1935084S14123 1935 20 SI WA NOT_NAMED 1935-03-27 03:00:00 NR -15.9254 122.357 main 85 61 ______P___P___ -1 -15.4023 122.648 -16.4485 122.066 7 6 183
1935084S14123 1935 20 SI WA NOT_NAMED 1935-03-27 06:00:00 NR -16.2160 122.368 main 61 46 ______P___P___ -1 -15.7458 122.458 -16.6861 122.279 7 6 173
1935084S14123 1935 20 SI WA NOT_NAMED 1935-03-27 08:00:00 NR -16.4132 122.422 bom main 46 30 ______O___P___ -1 -16.0000 122.400 -16.8263 122.444 7 6 164
1935084S14123 1935 20 SI WA NOT_NAMED 1935-03-27 09:00:00 NR -16.5156 122.465 main 30 10 ______P___P___ -1 -16.1415 122.400 -16.8896 122.529 7 7 154
1935084S14123 1935 20 SI WA NOT_NAMED 1935-03-27 11:00:00 NR -16.7200 122.576 main 10 10 ______P___O___ -1 -16.4401 122.452 -17.0000 122.700 7 7 152
1935084S14123 1935 20 SI WA NOT_NAMED 1935-03-27 12:00:00 NR -16.8176 122.637 main 11 0 ______P___P___ -1 -16.5900 122.500 -17.0451 122.774 7 7 143
1935084S14123 1935 20 SI WA NOT_NAMED 1935-03-27 15:00:00 NR -17.0737 122.852 957 bom main 0 0 ______O___P___ -1 -17.0000 122.700 957 4 -17.1474 123.003 7 6 135
1935084S14123 1935 20 SI WA NOT_NAMED 1935-03-27 18:00:00 NR -17.2567 123.090 main 0 0 ______P___P___ -1 -17.2987 122.946 -17.2147 123.235 7 6 124
1935084S14123 1935 20 SI WA NOT_NAMED 1935-03-27 21:00:00 NR -17.3847 123.338 main 0 0 ______P___P___ -1 -17.5036 123.217 -17.2658 123.459 7 5 113
1935084S14123 1935 20 SI WA NOT_NAMED 1935-03-27 23:00:00 NR -17.4319 123.517 main 0 0 ______P___O___ -1 -17.6078 123.407 -17.3000 123.600 7 5 101
1935084S14123 1935 20 SI WA NOT_NAMED 1935-03-28 00:00:00 NR -17.4349 123.610 main 0 0 ______P___P___ -1 -17.6547 123.503 -17.3249 123.664 7 5 86
1935084S14123 1935 20 SI WA NOT_NAMED 1935-03-28 01:00:00 NR -17.4199 123.700 bom main 0 0 ______O___P___ -1 -17.7000 123.600 -17.3499 123.726 7 5 81
1935084S14123 1935 20 SI WA NOT_NAMED 1935-03-28 03:00:00 NR -17.3998 123.844 main 0 0 __________P___ -1 -17.3998 123.844 7 4 100
1935084S14123 1935 20 SI WA NOT_NAMED 1935-03-28 06:00:00 NR -17.4748 124.014 main 0 0 __________P___ -1 -17.4748 124.014 7 4 115
1935084S14123 1935 20 SI WA NOT_NAMED 1935-03-28 09:00:00 NR -17.5499 124.183 main 0 0 __________P___ -1 -17.5499 124.183 7 4 115
1935084S14123 1935 20 SI WA NOT_NAMED 1935-03-28 11:00:00 NR -17.6000 124.300 main 0 0 __________O___ -1 -17.6000 124.300 7 4 114
1935084S14123 1935 20 SI WA NOT_NAMED 1935-03-28 12:00:00 NR -17.6251 124.361 main 0 0 __________P___ -1 -17.6251 124.361 7 4 113
1935084S14123 1935 20 SI WA NOT_NAMED 1935-03-28 15:00:00 NR -17.7002 124.552 main 0 0 __________P___ -1 -17.7002 124.552 7 4 112
1935084S14123 1935 20 SI WA NOT_NAMED 1935-03-28 18:00:00 NR -17.7753 124.753 main 0 0 __________P___ -1 -17.7753 124.753 7 4 111
1935084S14123 1935 20 SI WA NOT_NAMED 1935-03-28 21:00:00 NR -17.8502 124.960 main 0 0 __________P___ -1 -17.8502 124.960 7 4 111
1935084S14123 1935 20 SI WA NOT_NAMED 1935-03-28 23:00:00 NR -17.9000 125.100 main 0 __________O___ -1 -17.9000 125.100 7 4 110

About IBTrACS Database

This database is a web-friendly format of International Best Track Archive for Climate Stewardship (IBTrACS), a global best track data archive curated by NOAA dating back to 1842.

Updated: 2021-10-21